sensor_id;sensor_type;location;lat;lon;timestamp;P1;durP1;ratioP1;P2;durP2;ratioP2
9914;SDS011;4996;48.746;9.174;2023-05-03T00:00:06;6.37;;;4.03;;
9914;SDS011;4996;48.746;9.174;2023-05-03T00:02:33;8.37;;;5.03;;
9914;SDS011;4996;48.746;9.174;2023-05-03T00:05:03;6.80;;;4.07;;
9914;SDS011;4996;48.746;9.174;2023-05-03T00:07:28;5.20;;;3.67;;
9914;SDS011;4996;48.746;9.174;2023-05-03T00:09:54;5.27;;;3.70;;
9914;SDS011;4996;48.746;9.174;2023-05-03T00:12:20;8.10;;;4.77;;
9914;SDS011;4996;48.746;9.174;2023-05-03T00:14:45;5.63;;;3.80;;
9914;SDS011;4996;48.746;9.174;2023-05-03T00:17:11;7.00;;;4.63;;
9914;SDS011;4996;48.746;9.174;2023-05-03T00:19:37;5.37;;;4.07;;
9914;SDS011;4996;48.746;9.174;2023-05-03T00:22:03;10.60;;;5.10;;
9914;SDS011;4996;48.746;9.174;2023-05-03T00:24:29;4.30;;;3.87;;
9914;SDS011;4996;48.746;9.174;2023-05-03T00:26:55;7.40;;;5.10;;
9914;SDS011;4996;48.746;9.174;2023-05-03T00:29:20;9.20;;;4.47;;
9914;SDS011;4996;48.746;9.174;2023-05-03T00:31:46;6.40;;;4.07;;
9914;SDS011;4996;48.746;9.174;2023-05-03T00:34:12;5.90;;;3.27;;
9914;SDS011;4996;48.746;9.174;2023-05-03T00:36:38;6.77;;;4.60;;
9914;SDS011;4996;48.746;9.174;2023-05-03T00:39:04;5.20;;;4.03;;
9914;SDS011;4996;48.746;9.174;2023-05-03T00:41:29;7.50;;;4.13;;
9914;SDS011;4996;48.746;9.174;2023-05-03T00:43:55;4.33;;;3.40;;
9914;SDS011;4996;48.746;9.174;2023-05-03T00:46:20;5.73;;;4.30;;
9914;SDS011;4996;48.746;9.174;2023-05-03T00:48:49;5.43;;;4.00;;
9914;SDS011;4996;48.746;9.174;2023-05-03T00:51:15;5.47;;;4.10;;
9914;SDS011;4996;48.746;9.174;2023-05-03T00:53:42;10.80;;;5.03;;
9914;SDS011;4996;48.746;9.174;2023-05-03T00:56:08;7.60;;;4.73;;
9914;SDS011;4996;48.746;9.174;2023-05-03T00:58:35;5.20;;;3.80;;
9914;SDS011;4996;48.746;9.174;2023-05-03T01:01:03;6.60;;;4.20;;
9914;SDS011;4996;48.746;9.174;2023-05-03T01:03:31;6.60;;;4.20;;
9914;SDS011;4996;48.746;9.174;2023-05-03T01:08:46;9.27;;;4.17;;
9914;SDS011;4996;48.746;9.174;2023-05-03T01:11:22;4.43;;;3.80;;
9914;SDS011;4996;48.746;9.174;2023-05-03T01:14:19;5.70;;;3.60;;
9914;SDS011;4996;48.746;9.174;2023-05-03T01:16:42;10.47;;;3.33;;
9914;SDS011;4996;48.746;9.174;2023-05-03T01:19:25;8.13;;;5.10;;
9914;SDS011;4996;48.746;9.174;2023-05-03T01:24:59;6.53;;;3.97;;
9914;SDS011;4996;48.746;9.174;2023-05-03T01:27:31;8.70;;;5.10;;
9914;SDS011;4996;48.746;9.174;2023-05-03T01:29:57;8.23;;;4.50;;
9914;SDS011;4996;48.746;9.174;2023-05-03T01:32:24;9.13;;;4.40;;
9914;SDS011;4996;48.746;9.174;2023-05-03T01:38:11;3.83;;;3.33;;
9914;SDS011;4996;48.746;9.174;2023-05-03T01:40:40;11.63;;;5.60;;
9914;SDS011;4996;48.746;9.174;2023-05-03T01:43:09;7.00;;;4.27;;
9914;SDS011;4996;48.746;9.174;2023-05-03T01:45:37;6.20;;;3.90;;
9914;SDS011;4996;48.746;9.174;2023-05-03T01:48:07;6.80;;;4.50;;
9914;SDS011;4996;48.746;9.174;2023-05-03T01:50:35;8.37;;;4.40;;
9914;SDS011;4996;48.746;9.174;2023-05-03T01:53:00;7.07;;;5.17;;
9914;SDS011;4996;48.746;9.174;2023-05-03T01:55:26;14.40;;;5.33;;
9914;SDS011;4996;48.746;9.174;2023-05-03T01:57:51;6.03;;;3.80;;
9914;SDS011;4996;48.746;9.174;2023-05-03T02:00:17;6.80;;;4.83;;
9914;SDS011;4996;48.746;9.174;2023-05-03T02:02:42;7.27;;;4.80;;
9914;SDS011;4996;48.746;9.174;2023-05-03T02:05:08;7.77;;;5.47;;
9914;SDS011;4996;48.746;9.174;2023-05-03T02:07:35;6.60;;;5.27;;
9914;SDS011;4996;48.746;9.174;2023-05-03T02:10:00;10.00;;;5.00;;
9914;SDS011;4996;48.746;9.174;2023-05-03T02:12:26;6.93;;;4.30;;
9914;SDS011;4996;48.746;9.174;2023-05-03T02:14:51;7.43;;;5.27;;
9914;SDS011;4996;48.746;9.174;2023-05-03T02:17:16;10.80;;;5.10;;
9914;SDS011;4996;48.746;9.174;2023-05-03T02:19:42;5.97;;;4.67;;
9914;SDS011;4996;48.746;9.174;2023-05-03T02:22:08;9.30;;;5.20;;
9914;SDS011;4996;48.746;9.174;2023-05-03T02:24:34;7.17;;;4.80;;
9914;SDS011;4996;48.746;9.174;2023-05-03T02:27:00;9.80;;;5.13;;
9914;SDS011;4996;48.746;9.174;2023-05-03T02:29:28;7.07;;;4.73;;
9914;SDS011;4996;48.746;9.174;2023-05-03T02:31:55;8.07;;;4.63;;
9914;SDS011;4996;48.746;9.174;2023-05-03T02:34:20;6.10;;;4.13;;
9914;SDS011;4996;48.746;9.174;2023-05-03T02:36:46;6.57;;;4.33;;
9914;SDS011;4996;48.746;9.174;2023-05-03T02:39:11;5.93;;;4.90;;
9914;SDS011;4996;48.746;9.174;2023-05-03T02:41:37;6.77;;;4.80;;
9914;SDS011;4996;48.746;9.174;2023-05-03T02:44:02;11.97;;;5.53;;
9914;SDS011;4996;48.746;9.174;2023-05-03T02:46:28;7.10;;;4.63;;
9914;SDS011;4996;48.746;9.174;2023-05-03T02:48:53;8.67;;;5.10;;
9914;SDS011;4996;48.746;9.174;2023-05-03T02:51:18;8.97;;;5.20;;
9914;SDS011;4996;48.746;9.174;2023-05-03T02:53:44;9.03;;;5.30;;
9914;SDS011;4996;48.746;9.174;2023-05-03T02:56:10;8.40;;;5.80;;
9914;SDS011;4996;48.746;9.174;2023-05-03T02:58:35;7.30;;;4.93;;
9914;SDS011;4996;48.746;9.174;2023-05-03T03:01:01;12.83;;;5.70;;
9914;SDS011;4996;48.746;9.174;2023-05-03T03:03:27;12.53;;;5.67;;
9914;SDS011;4996;48.746;9.174;2023-05-03T03:05:52;7.70;;;4.30;;
9914;SDS011;4996;48.746;9.174;2023-05-03T03:08:18;11.60;;;5.50;;
9914;SDS011;4996;48.746;9.174;2023-05-03T03:10:43;7.60;;;5.13;;
9914;SDS011;4996;48.746;9.174;2023-05-03T03:13:09;9.93;;;6.40;;
9914;SDS011;4996;48.746;9.174;2023-05-03T03:15:34;8.83;;;5.90;;
9914;SDS011;4996;48.746;9.174;2023-05-03T03:18:00;6.87;;;4.80;;
9914;SDS011;4996;48.746;9.174;2023-05-03T03:20:25;7.23;;;4.90;;
9914;SDS011;4996;48.746;9.174;2023-05-03T03:22:51;9.70;;;6.23;;
9914;SDS011;4996;48.746;9.174;2023-05-03T03:25:16;12.23;;;5.63;;
9914;SDS011;4996;48.746;9.174;2023-05-03T03:27:42;10.47;;;6.53;;
9914;SDS011;4996;48.746;9.174;2023-05-03T03:30:07;10.67;;;6.17;;
9914;SDS011;4996;48.746;9.174;2023-05-03T03:32:34;9.23;;;5.90;;
9914;SDS011;4996;48.746;9.174;2023-05-03T03:35:00;6.83;;;4.93;;
9914;SDS011;4996;48.746;9.174;2023-05-03T03:37:25;12.07;;;6.20;;
9914;SDS011;4996;48.746;9.174;2023-05-03T03:39:51;8.33;;;5.77;;
9914;SDS011;4996;48.746;9.174;2023-05-03T03:42:17;15.37;;;6.87;;
9914;SDS011;4996;48.746;9.174;2023-05-03T03:44:43;9.47;;;5.63;;
9914;SDS011;4996;48.746;9.174;2023-05-03T03:47:10;11.03;;;4.93;;
9914;SDS011;4996;48.746;9.174;2023-05-03T03:49:35;11.83;;;5.80;;
9914;SDS011;4996;48.746;9.174;2023-05-03T03:52:01;11.13;;;6.20;;
9914;SDS011;4996;48.746;9.174;2023-05-03T03:54:26;6.27;;;5.23;;
9914;SDS011;4996;48.746;9.174;2023-05-03T03:56:52;12.10;;;6.90;;
9914;SDS011;4996;48.746;9.174;2023-05-03T03:59:18;8.63;;;5.80;;
9914;SDS011;4996;48.746;9.174;2023-05-03T04:01:43;11.33;;;6.70;;
9914;SDS011;4996;48.746;9.174;2023-05-03T04:04:09;10.20;;;6.50;;
9914;SDS011;4996;48.746;9.174;2023-05-03T04:06:34;11.33;;;6.00;;
9914;SDS011;4996;48.746;9.174;2023-05-03T04:09:00;11.30;;;7.13;;
9914;SDS011;4996;48.746;9.174;2023-05-03T04:11:25;13.23;;;6.70;;
9914;SDS011;4996;48.746;9.174;2023-05-03T04:13:51;11.43;;;6.70;;
9914;SDS011;4996;48.746;9.174;2023-05-03T04:16:16;10.07;;;6.50;;
9914;SDS011;4996;48.746;9.174;2023-05-03T04:18:42;11.60;;;7.10;;
9914;SDS011;4996;48.746;9.174;2023-05-03T04:21:08;12.23;;;6.60;;
9914;SDS011;4996;48.746;9.174;2023-05-03T04:23:33;10.03;;;6.33;;
9914;SDS011;4996;48.746;9.174;2023-05-03T04:25:59;12.27;;;7.27;;
9914;SDS011;4996;48.746;9.174;2023-05-03T04:28:25;9.13;;;6.40;;
9914;SDS011;4996;48.746;9.174;2023-05-03T04:30:51;11.67;;;7.07;;
9914;SDS011;4996;48.746;9.174;2023-05-03T04:33:17;11.20;;;6.77;;
9914;SDS011;4996;48.746;9.174;2023-05-03T04:35:43;9.40;;;6.57;;
9914;SDS011;4996;48.746;9.174;2023-05-03T04:38:09;11.70;;;6.53;;
9914;SDS011;4996;48.746;9.174;2023-05-03T04:40:35;14.67;;;7.87;;
9914;SDS011;4996;48.746;9.174;2023-05-03T04:43:01;10.47;;;6.27;;
9914;SDS011;4996;48.746;9.174;2023-05-03T04:45:27;13.53;;;6.90;;
9914;SDS011;4996;48.746;9.174;2023-05-03T04:47:52;12.33;;;7.67;;
9914;SDS011;4996;48.746;9.174;2023-05-03T04:50:18;11.33;;;7.33;;
9914;SDS011;4996;48.746;9.174;2023-05-03T04:52:43;11.33;;;7.83;;
9914;SDS011;4996;48.746;9.174;2023-05-03T04:55:09;13.47;;;7.40;;
9914;SDS011;4996;48.746;9.174;2023-05-03T04:57:35;13.50;;;8.30;;
9914;SDS011;4996;48.746;9.174;2023-05-03T05:00:00;15.23;;;7.37;;
9914;SDS011;4996;48.746;9.174;2023-05-03T05:02:26;13.53;;;7.30;;
9914;SDS011;4996;48.746;9.174;2023-05-03T05:04:52;14.30;;;8.10;;
9914;SDS011;4996;48.746;9.174;2023-05-03T05:07:18;13.90;;;7.10;;
9914;SDS011;4996;48.746;9.174;2023-05-03T05:09:43;14.87;;;8.53;;
9914;SDS011;4996;48.746;9.174;2023-05-03T05:12:09;13.03;;;9.17;;
9914;SDS011;4996;48.746;9.174;2023-05-03T05:14:34;13.30;;;7.87;;
9914;SDS011;4996;48.746;9.174;2023-05-03T05:17:00;16.70;;;7.60;;
9914;SDS011;4996;48.746;9.174;2023-05-03T05:19:25;10.80;;;7.33;;
9914;SDS011;4996;48.746;9.174;2023-05-03T05:21:51;10.50;;;7.03;;
9914;SDS011;4996;48.746;9.174;2023-05-03T05:24:17;12.73;;;8.07;;
9914;SDS011;4996;48.746;9.174;2023-05-03T05:26:42;15.33;;;8.50;;
9914;SDS011;4996;48.746;9.174;2023-05-03T05:29:08;16.77;;;8.80;;
9914;SDS011;4996;48.746;9.174;2023-05-03T05:31:34;15.07;;;8.60;;
9914;SDS011;4996;48.746;9.174;2023-05-03T05:34:00;10.50;;;7.07;;
9914;SDS011;4996;48.746;9.174;2023-05-03T05:36:26;13.93;;;7.97;;
9914;SDS011;4996;48.746;9.174;2023-05-03T05:38:52;15.63;;;9.10;;
9914;SDS011;4996;48.746;9.174;2023-05-03T05:41:17;13.93;;;8.50;;
9914;SDS011;4996;48.746;9.174;2023-05-03T05:43:43;14.50;;;8.27;;
9914;SDS011;4996;48.746;9.174;2023-05-03T05:46:09;13.77;;;7.37;;
9914;SDS011;4996;48.746;9.174;2023-05-03T05:48:35;17.13;;;8.47;;
9914;SDS011;4996;48.746;9.174;2023-05-03T05:51:01;13.20;;;7.63;;
9914;SDS011;4996;48.746;9.174;2023-05-03T05:53:26;10.30;;;7.90;;
9914;SDS011;4996;48.746;9.174;2023-05-03T05:55:52;14.10;;;7.93;;
9914;SDS011;4996;48.746;9.174;2023-05-03T05:58:18;13.33;;;8.40;;
9914;SDS011;4996;48.746;9.174;2023-05-03T06:00:43;13.17;;;7.80;;
9914;SDS011;4996;48.746;9.174;2023-05-03T06:03:09;11.67;;;7.90;;
9914;SDS011;4996;48.746;9.174;2023-05-03T06:05:34;13.10;;;9.53;;
9914;SDS011;4996;48.746;9.174;2023-05-03T06:08:00;13.60;;;7.83;;
9914;SDS011;4996;48.746;9.174;2023-05-03T06:10:26;15.37;;;8.80;;
9914;SDS011;4996;48.746;9.174;2023-05-03T06:12:51;12.43;;;7.77;;
9914;SDS011;4996;48.746;9.174;2023-05-03T06:15:17;15.77;;;9.57;;
9914;SDS011;4996;48.746;9.174;2023-05-03T06:17:43;11.90;;;8.87;;
9914;SDS011;4996;48.746;9.174;2023-05-03T06:20:09;16.07;;;9.10;;
9914;SDS011;4996;48.746;9.174;2023-05-03T06:22:36;13.13;;;8.90;;
9914;SDS011;4996;48.746;9.174;2023-05-03T06:25:02;13.97;;;9.30;;
9914;SDS011;4996;48.746;9.174;2023-05-03T06:27:27;16.37;;;8.83;;
9914;SDS011;4996;48.746;9.174;2023-05-03T06:29:53;12.77;;;8.87;;
9914;SDS011;4996;48.746;9.174;2023-05-03T06:32:19;16.20;;;8.73;;
9914;SDS011;4996;48.746;9.174;2023-05-03T06:34:46;12.33;;;8.30;;
9914;SDS011;4996;48.746;9.174;2023-05-03T06:37:15;10.73;;;7.80;;
9914;SDS011;4996;48.746;9.174;2023-05-03T06:39:41;14.90;;;9.50;;
9914;SDS011;4996;48.746;9.174;2023-05-03T06:42:06;13.10;;;8.17;;
9914;SDS011;4996;48.746;9.174;2023-05-03T06:44:32;13.93;;;9.50;;
9914;SDS011;4996;48.746;9.174;2023-05-03T06:46:57;16.50;;;9.23;;
9914;SDS011;4996;48.746;9.174;2023-05-03T06:49:23;11.30;;;8.70;;
9914;SDS011;4996;48.746;9.174;2023-05-03T06:51:49;13.37;;;8.90;;
9914;SDS011;4996;48.746;9.174;2023-05-03T06:54:14;13.80;;;9.33;;
9914;SDS011;4996;48.746;9.174;2023-05-03T06:56:40;16.97;;;8.27;;
9914;SDS011;4996;48.746;9.174;2023-05-03T06:59:05;21.33;;;9.03;;
9914;SDS011;4996;48.746;9.174;2023-05-03T07:01:32;14.93;;;8.70;;
9914;SDS011;4996;48.746;9.174;2023-05-03T07:03:58;13.17;;;8.27;;
9914;SDS011;4996;48.746;9.174;2023-05-03T07:06:24;16.17;;;9.40;;
9914;SDS011;4996;48.746;9.174;2023-05-03T07:08:50;12.57;;;8.20;;
9914;SDS011;4996;48.746;9.174;2023-05-03T07:11:16;16.03;;;8.70;;
9914;SDS011;4996;48.746;9.174;2023-05-03T07:13:43;21.30;;;9.17;;
9914;SDS011;4996;48.746;9.174;2023-05-03T07:16:08;15.97;;;9.30;;
9914;SDS011;4996;48.746;9.174;2023-05-03T07:18:34;15.83;;;10.13;;
9914;SDS011;4996;48.746;9.174;2023-05-03T07:20:59;16.07;;;10.00;;
9914;SDS011;4996;48.746;9.174;2023-05-03T07:23:29;12.50;;;9.10;;
9914;SDS011;4996;48.746;9.174;2023-05-03T07:25:55;11.90;;;7.93;;
9914;SDS011;4996;48.746;9.174;2023-05-03T07:28:21;13.57;;;7.63;;
9914;SDS011;4996;48.746;9.174;2023-05-03T07:30:47;11.00;;;8.63;;
9914;SDS011;4996;48.746;9.174;2023-05-03T07:33:13;16.60;;;9.97;;
9914;SDS011;4996;48.746;9.174;2023-05-03T07:35:38;17.83;;;8.23;;
9914;SDS011;4996;48.746;9.174;2023-05-03T07:38:04;10.77;;;8.50;;
9914;SDS011;4996;48.746;9.174;2023-05-03T07:40:29;13.47;;;8.27;;
9914;SDS011;4996;48.746;9.174;2023-05-03T07:42:57;11.70;;;8.80;;
9914;SDS011;4996;48.746;9.174;2023-05-03T07:45:26;13.67;;;9.10;;
9914;SDS011;4996;48.746;9.174;2023-05-03T07:47:51;11.27;;;8.10;;
9914;SDS011;4996;48.746;9.174;2023-05-03T07:50:17;11.50;;;9.13;;
9914;SDS011;4996;48.746;9.174;2023-05-03T07:52:42;11.60;;;8.20;;
9914;SDS011;4996;48.746;9.174;2023-05-03T07:55:08;10.37;;;7.60;;
9914;SDS011;4996;48.746;9.174;2023-05-03T07:57:34;11.47;;;8.47;;
9914;SDS011;4996;48.746;9.174;2023-05-03T08:00:00;14.57;;;8.80;;
9914;SDS011;4996;48.746;9.174;2023-05-03T08:02:26;12.00;;;8.97;;
9914;SDS011;4996;48.746;9.174;2023-05-03T08:04:51;11.33;;;8.03;;
9914;SDS011;4996;48.746;9.174;2023-05-03T08:07:18;11.50;;;8.17;;
9914;SDS011;4996;48.746;9.174;2023-05-03T08:09:44;8.93;;;7.30;;
9914;SDS011;4996;48.746;9.174;2023-05-03T08:12:10;10.67;;;8.23;;
9914;SDS011;4996;48.746;9.174;2023-05-03T08:14:35;10.60;;;8.27;;
9914;SDS011;4996;48.746;9.174;2023-05-03T08:17:01;12.23;;;7.67;;
9914;SDS011;4996;48.746;9.174;2023-05-03T08:19:28;10.17;;;7.20;;
9914;SDS011;4996;48.746;9.174;2023-05-03T08:21:54;11.03;;;9.13;;
9914;SDS011;4996;48.746;9.174;2023-05-03T08:24:20;10.30;;;7.80;;
9914;SDS011;4996;48.746;9.174;2023-05-03T08:26:45;18.97;;;7.17;;
9914;SDS011;4996;48.746;9.174;2023-05-03T08:29:12;10.43;;;7.90;;
9914;SDS011;4996;48.746;9.174;2023-05-03T08:31:40;9.83;;;7.90;;
9914;SDS011;4996;48.746;9.174;2023-05-03T08:34:07;9.57;;;8.57;;
9914;SDS011;4996;48.746;9.174;2023-05-03T08:36:34;9.20;;;7.10;;
9914;SDS011;4996;48.746;9.174;2023-05-03T08:39:02;10.50;;;8.23;;
9914;SDS011;4996;48.746;9.174;2023-05-03T08:41:31;14.17;;;7.60;;
9914;SDS011;4996;48.746;9.174;2023-05-03T08:43:57;12.60;;;8.40;;
9914;SDS011;4996;48.746;9.174;2023-05-03T08:46:24;11.73;;;7.70;;
9914;SDS011;4996;48.746;9.174;2023-05-03T08:48:50;11.10;;;8.43;;
9914;SDS011;4996;48.746;9.174;2023-05-03T08:51:17;9.63;;;7.33;;
9914;SDS011;4996;48.746;9.174;2023-05-03T08:53:44;9.83;;;7.50;;
9914;SDS011;4996;48.746;9.174;2023-05-03T08:56:10;9.70;;;6.80;;
9914;SDS011;4996;48.746;9.174;2023-05-03T08:58:40;10.97;;;7.37;;
9914;SDS011;4996;48.746;9.174;2023-05-03T09:01:06;10.43;;;8.10;;
9914;SDS011;4996;48.746;9.174;2023-05-03T09:03:33;11.73;;;8.50;;
9914;SDS011;4996;48.746;9.174;2023-05-03T09:05:59;10.50;;;7.53;;
9914;SDS011;4996;48.746;9.174;2023-05-03T09:08:29;9.53;;;7.67;;
9914;SDS011;4996;48.746;9.174;2023-05-03T09:10:55;12.07;;;7.37;;
9914;SDS011;4996;48.746;9.174;2023-05-03T09:13:28;8.70;;;7.27;;
9914;SDS011;4996;48.746;9.174;2023-05-03T09:15:56;8.90;;;7.40;;
9914;SDS011;4996;48.746;9.174;2023-05-03T09:18:22;7.37;;;5.73;;
9914;SDS011;4996;48.746;9.174;2023-05-03T09:20:49;9.40;;;7.00;;
9914;SDS011;4996;48.746;9.174;2023-05-03T09:23:15;8.30;;;7.50;;
9914;SDS011;4996;48.746;9.174;2023-05-03T09:25:44;7.80;;;6.50;;
9914;SDS011;4996;48.746;9.174;2023-05-03T09:28:15;10.60;;;7.50;;
9914;SDS011;4996;48.746;9.174;2023-05-03T09:30:41;15.90;;;6.57;;
9914;SDS011;4996;48.746;9.174;2023-05-03T09:33:07;8.23;;;7.23;;
9914;SDS011;4996;48.746;9.174;2023-05-03T09:35:36;7.00;;;6.27;;
9914;SDS011;4996;48.746;9.174;2023-05-03T09:38:02;11.20;;;7.53;;
9914;SDS011;4996;48.746;9.174;2023-05-03T09:40:28;10.37;;;7.00;;
9914;SDS011;4996;48.746;9.174;2023-05-03T09:43:09;13.83;;;7.00;;
9914;SDS011;4996;48.746;9.174;2023-05-03T09:45:36;8.10;;;7.30;;
9914;SDS011;4996;48.746;9.174;2023-05-03T09:48:03;9.07;;;6.50;;
9914;SDS011;4996;48.746;9.174;2023-05-03T09:50:33;10.20;;;7.37;;
9914;SDS011;4996;48.746;9.174;2023-05-03T09:53:03;9.40;;;7.57;;
9914;SDS011;4996;48.746;9.174;2023-05-03T09:55:34;8.27;;;6.47;;
9914;SDS011;4996;48.746;9.174;2023-05-03T09:58:01;8.90;;;6.23;;
9914;SDS011;4996;48.746;9.174;2023-05-03T10:00:36;6.80;;;5.73;;
9914;SDS011;4996;48.746;9.174;2023-05-03T10:03:09;7.30;;;5.80;;
9914;SDS011;4996;48.746;9.174;2023-05-03T10:05:39;9.37;;;7.40;;
9914;SDS011;4996;48.746;9.174;2023-05-03T10:08:12;8.90;;;7.00;;
9914;SDS011;4996;48.746;9.174;2023-05-03T10:10:43;7.90;;;7.10;;
9914;SDS011;4996;48.746;9.174;2023-05-03T10:13:15;17.20;;;6.20;;
9914;SDS011;4996;48.746;9.174;2023-05-03T10:15:40;6.87;;;6.17;;
9914;SDS011;4996;48.746;9.174;2023-05-03T10:18:08;9.10;;;6.40;;
9914;SDS011;4996;48.746;9.174;2023-05-03T10:21:00;7.07;;;6.30;;
9914;SDS011;4996;48.746;9.174;2023-05-03T10:23:33;8.50;;;6.20;;
9914;SDS011;4996;48.746;9.174;2023-05-03T10:28:37;11.03;;;6.57;;
9914;SDS011;4996;48.746;9.174;2023-05-03T10:31:02;7.67;;;5.80;;
9914;SDS011;4996;48.746;9.174;2023-05-03T10:35:58;8.00;;;5.40;;
9914;SDS011;4996;48.746;9.174;2023-05-03T10:38:32;6.47;;;5.67;;
9914;SDS011;4996;48.746;9.174;2023-05-03T10:40:58;6.37;;;5.23;;
9914;SDS011;4996;48.746;9.174;2023-05-03T10:46:02;6.93;;;5.00;;
9914;SDS011;4996;48.746;9.174;2023-05-03T10:48:29;7.90;;;5.20;;
9914;SDS011;4996;48.746;9.174;2023-05-03T10:50:56;6.50;;;5.80;;
9914;SDS011;4996;48.746;9.174;2023-05-03T10:53:42;7.30;;;6.60;;
9914;SDS011;4996;48.746;9.174;2023-05-03T10:56:09;15.67;;;6.43;;
9914;SDS011;4996;48.746;9.174;2023-05-03T10:58:47;6.13;;;4.83;;
9914;SDS011;4996;48.746;9.174;2023-05-03T11:01:14;8.10;;;5.70;;
9914;SDS011;4996;48.746;9.174;2023-05-03T11:03:43;12.00;;;5.00;;
9914;SDS011;4996;48.746;9.174;2023-05-03T11:06:29;7.00;;;5.23;;
9914;SDS011;4996;48.746;9.174;2023-05-03T11:08:56;8.47;;;5.73;;
9914;SDS011;4996;48.746;9.174;2023-05-03T11:11:22;10.40;;;5.67;;
9914;SDS011;4996;48.746;9.174;2023-05-03T11:13:49;6.90;;;4.70;;
9914;SDS011;4996;48.746;9.174;2023-05-03T11:16:15;5.70;;;4.60;;
9914;SDS011;4996;48.746;9.174;2023-05-03T11:18:41;5.80;;;4.37;;
9914;SDS011;4996;48.746;9.174;2023-05-03T11:21:06;5.10;;;4.60;;
9914;SDS011;4996;48.746;9.174;2023-05-03T11:23:32;5.07;;;4.37;;
9914;SDS011;4996;48.746;9.174;2023-05-03T11:25:57;4.90;;;4.00;;
9914;SDS011;4996;48.746;9.174;2023-05-03T11:28:24;5.27;;;4.53;;
9914;SDS011;4996;48.746;9.174;2023-05-03T11:30:49;5.63;;;4.63;;
9914;SDS011;4996;48.746;9.174;2023-05-03T11:33:15;4.77;;;3.30;;
9914;SDS011;4996;48.746;9.174;2023-05-03T11:35:41;5.67;;;5.13;;
9914;SDS011;4996;48.746;9.174;2023-05-03T11:38:07;5.70;;;4.00;;
9914;SDS011;4996;48.746;9.174;2023-05-03T11:40:34;5.40;;;4.90;;
9914;SDS011;4996;48.746;9.174;2023-05-03T11:43:00;6.73;;;4.37;;
9914;SDS011;4996;48.746;9.174;2023-05-03T11:45:30;6.90;;;4.73;;
9914;SDS011;4996;48.746;9.174;2023-05-03T11:48:02;5.10;;;4.60;;
9914;SDS011;4996;48.746;9.174;2023-05-03T11:50:44;5.27;;;4.77;;
9914;SDS011;4996;48.746;9.174;2023-05-03T11:53:19;6.53;;;5.10;;
9914;SDS011;4996;48.746;9.174;2023-05-03T11:55:46;6.00;;;5.40;;
9914;SDS011;4996;48.746;9.174;2023-05-03T11:58:17;4.93;;;4.13;;
9914;SDS011;4996;48.746;9.174;2023-05-03T12:01:02;4.57;;;4.10;;
9914;SDS011;4996;48.746;9.174;2023-05-03T12:03:29;4.57;;;3.97;;
9914;SDS011;4996;48.746;9.174;2023-05-03T12:05:56;6.67;;;4.87;;
9914;SDS011;4996;48.746;9.174;2023-05-03T12:08:29;5.97;;;4.40;;
9914;SDS011;4996;48.746;9.174;2023-05-03T12:10:56;4.97;;;4.53;;
9914;SDS011;4996;48.746;9.174;2023-05-03T12:13:26;4.00;;;3.63;;
9914;SDS011;4996;48.746;9.174;2023-05-03T12:16:02;3.80;;;3.40;;
9914;SDS011;4996;48.746;9.174;2023-05-03T12:21:14;4.67;;;4.20;;
9914;SDS011;4996;48.746;9.174;2023-05-03T12:23:40;7.17;;;4.30;;
9914;SDS011;4996;48.746;9.174;2023-05-03T12:26:06;5.77;;;4.07;;
9914;SDS011;4996;48.746;9.174;2023-05-03T12:28:32;4.40;;;4.00;;
9914;SDS011;4996;48.746;9.174;2023-05-03T12:30:58;4.47;;;3.80;;
9914;SDS011;4996;48.746;9.174;2023-05-03T12:33:23;4.10;;;3.70;;
9914;SDS011;4996;48.746;9.174;2023-05-03T12:35:49;4.10;;;3.70;;
9914;SDS011;4996;48.746;9.174;2023-05-03T12:38:15;4.10;;;3.70;;
9914;SDS011;4996;48.746;9.174;2023-05-03T12:40:41;4.00;;;3.60;;
9914;SDS011;4996;48.746;9.174;2023-05-03T12:43:06;4.20;;;3.80;;
9914;SDS011;4996;48.746;9.174;2023-05-03T12:45:32;6.70;;;5.10;;
9914;SDS011;4996;48.746;9.174;2023-05-03T12:47:57;8.50;;;3.33;;
9914;SDS011;4996;48.746;9.174;2023-05-03T12:50:23;4.90;;;3.93;;
9914;SDS011;4996;48.746;9.174;2023-05-03T12:52:49;4.30;;;3.90;;
9914;SDS011;4996;48.746;9.174;2023-05-03T12:55:14;6.80;;;4.30;;
9914;SDS011;4996;48.746;9.174;2023-05-03T12:57:40;4.20;;;3.70;;
9914;SDS011;4996;48.746;9.174;2023-05-03T13:00:07;7.63;;;3.70;;
9914;SDS011;4996;48.746;9.174;2023-05-03T13:02:33;4.97;;;3.77;;
9914;SDS011;4996;48.746;9.174;2023-05-03T13:04:59;4.70;;;3.37;;
9914;SDS011;4996;48.746;9.174;2023-05-03T13:07:25;7.50;;;4.20;;
9914;SDS011;4996;48.746;9.174;2023-05-03T13:09:55;5.57;;;3.70;;
9914;SDS011;4996;48.746;9.174;2023-05-03T13:12:21;3.77;;;3.40;;
9914;SDS011;4996;48.746;9.174;2023-05-03T13:14:48;4.87;;;3.37;;
9914;SDS011;4996;48.746;9.174;2023-05-03T13:17:14;8.20;;;3.90;;
9914;SDS011;4996;48.746;9.174;2023-05-03T13:19:41;6.13;;;3.80;;
9914;SDS011;4996;48.746;9.174;2023-05-03T13:22:14;4.70;;;3.27;;
9914;SDS011;4996;48.746;9.174;2023-05-03T13:24:42;6.60;;;3.50;;
9914;SDS011;4996;48.746;9.174;2023-05-03T13:27:08;3.63;;;3.33;;
9914;SDS011;4996;48.746;9.174;2023-05-03T13:29:37;4.23;;;3.80;;
9914;SDS011;4996;48.746;9.174;2023-05-03T13:32:03;3.53;;;3.13;;
9914;SDS011;4996;48.746;9.174;2023-05-03T13:34:28;3.93;;;3.57;;
9914;SDS011;4996;48.746;9.174;2023-05-03T13:36:54;4.63;;;3.10;;
9914;SDS011;4996;48.746;9.174;2023-05-03T13:39:20;4.33;;;3.83;;
9914;SDS011;4996;48.746;9.174;2023-05-03T13:41:46;3.97;;;3.30;;
9914;SDS011;4996;48.746;9.174;2023-05-03T13:44:11;3.87;;;3.47;;
9914;SDS011;4996;48.746;9.174;2023-05-03T13:46:37;4.23;;;3.17;;
9914;SDS011;4996;48.746;9.174;2023-05-03T13:49:04;4.60;;;3.37;;
9914;SDS011;4996;48.746;9.174;2023-05-03T13:51:31;4.20;;;3.80;;
9914;SDS011;4996;48.746;9.174;2023-05-03T13:54:00;4.07;;;3.27;;
9914;SDS011;4996;48.746;9.174;2023-05-03T13:56:27;3.17;;;2.87;;
9914;SDS011;4996;48.746;9.174;2023-05-03T13:58:53;6.90;;;3.60;;
9914;SDS011;4996;48.746;9.174;2023-05-03T14:01:25;3.47;;;3.17;;
9914;SDS011;4996;48.746;9.174;2023-05-03T14:03:51;3.30;;;3.00;;
9914;SDS011;4996;48.746;9.174;2023-05-03T14:06:18;4.40;;;3.27;;
9914;SDS011;4996;48.746;9.174;2023-05-03T14:08:45;3.80;;;2.87;;
9914;SDS011;4996;48.746;9.174;2023-05-03T14:11:11;4.60;;;4.03;;
9914;SDS011;4996;48.746;9.174;2023-05-03T14:13:38;3.10;;;2.80;;
9914;SDS011;4996;48.746;9.174;2023-05-03T14:16:03;3.57;;;3.27;;
9914;SDS011;4996;48.746;9.174;2023-05-03T14:18:29;2.57;;;2.37;;
9914;SDS011;4996;48.746;9.174;2023-05-03T14:20:54;3.00;;;2.60;;
9914;SDS011;4996;48.746;9.174;2023-05-03T14:23:21;3.37;;;2.60;;
9914;SDS011;4996;48.746;9.174;2023-05-03T14:25:48;4.03;;;3.20;;
9914;SDS011;4996;48.746;9.174;2023-05-03T14:28:13;4.77;;;3.07;;
9914;SDS011;4996;48.746;9.174;2023-05-03T14:30:39;4.00;;;3.13;;
9914;SDS011;4996;48.746;9.174;2023-05-03T14:33:04;3.00;;;2.70;;
9914;SDS011;4996;48.746;9.174;2023-05-03T14:35:30;3.60;;;3.00;;
9914;SDS011;4996;48.746;9.174;2023-05-03T14:37:56;2.80;;;2.40;;
9914;SDS011;4996;48.746;9.174;2023-05-03T14:40:21;5.57;;;2.27;;
9914;SDS011;4996;48.746;9.174;2023-05-03T14:42:47;3.27;;;2.53;;
9914;SDS011;4996;48.746;9.174;2023-05-03T14:45:12;3.63;;;2.70;;
9914;SDS011;4996;48.746;9.174;2023-05-03T14:47:39;3.17;;;2.53;;
9914;SDS011;4996;48.746;9.174;2023-05-03T14:50:05;2.90;;;2.60;;
9914;SDS011;4996;48.746;9.174;2023-05-03T14:52:31;2.93;;;2.67;;
9914;SDS011;4996;48.746;9.174;2023-05-03T14:54:57;3.73;;;3.07;;
9914;SDS011;4996;48.746;9.174;2023-05-03T14:57:22;4.20;;;3.17;;
9914;SDS011;4996;48.746;9.174;2023-05-03T14:59:48;6.00;;;2.63;;
9914;SDS011;4996;48.746;9.174;2023-05-03T15:02:13;3.90;;;2.90;;
9914;SDS011;4996;48.746;9.174;2023-05-03T15:04:39;3.20;;;2.90;;
9914;SDS011;4996;48.746;9.174;2023-05-03T15:07:04;2.73;;;2.40;;
9914;SDS011;4996;48.746;9.174;2023-05-03T15:09:33;3.53;;;2.43;;
9914;SDS011;4996;48.746;9.174;2023-05-03T15:11:59;2.80;;;2.53;;
9914;SDS011;4996;48.746;9.174;2023-05-03T15:14:28;3.13;;;2.10;;
9914;SDS011;4996;48.746;9.174;2023-05-03T15:16:53;3.53;;;2.67;;
9914;SDS011;4996;48.746;9.174;2023-05-03T15:19:19;3.73;;;2.53;;
9914;SDS011;4996;48.746;9.174;2023-05-03T15:21:45;4.07;;;2.73;;
9914;SDS011;4996;48.746;9.174;2023-05-03T15:24:15;3.67;;;2.37;;
9914;SDS011;4996;48.746;9.174;2023-05-03T15:26:42;2.70;;;2.50;;